EDT,Max TemperatureF,Mean TemperatureF,Min TemperatureF,Max Dew PointF,MeanDew PointF,Min DewpointF,Max Humidity, Mean Humidity, Min Humidity, Max Sea Level PressureIn, Mean Sea Level PressureIn, Min Sea Level PressureIn, Max VisibilityMiles, Mean VisibilityMiles, Min VisibilityMiles, Max Wind SpeedMPH, Mean Wind SpeedMPH, Max Gust SpeedMPH,PrecipitationIn, CloudCover, Events, WindDirDegrees
2012-10-1,72,60,48,53,49,46,93,71,40,29.97,29.91,29.85,10,10,7,14,6,22,0.00,2,Rain,254
2012-10-2,72,65,59,70,66,54,100,92,64,29.99,29.94,29.91,10,5,0,10,4,,0.20,8,Fog-Rain,68
2012-10-3,82,74,66,77,69,64,100,93,70,30.11,30.02,29.96,10,4,0,7,3,,0.00,6,Fog-Rain,7
2012-10-4,77,70,65,72,68,64,100,94,77,30.13,30.09,30.03,10,7,4,7,1,,0.00,3,Rain,204
2012-10-5,81,69,58,63,59,56,96,74,44,30.08,30.02,29.94,10,10,10,9,5,,0.00,0,Rain,250
2012-10-6,80,66,51,62,56,45,100,79,53,30.00,29.88,29.77,10,10,9,16,7,24,0.00,0,,226
2012-10-7,52,47,42,47,44,40,94,84,67,30.12,30.07,30.01,10,9,5,7,3,,0.08,5,Rain,305
2012-10-8,52,46,41,45,42,39,100,85,62,30.28,30.19,30.12,10,8,2,9,3,,0.00,2,Rain,312
2012-10-9,59,54,50,57,52,45,100,90,76,30.20,30.12,30.04,10,9,2,13,8,,0.02,8,Rain,18
2012-10-10,67,61,53,58,55,40,100,89,49,30.04,29.95,29.82,10,7,2,17,7,23,0.48,7,Rain,316
2012-10-11,60,52,43,40,35,32,81,55,35,30.22,30.16,30.02,10,10,10,13,9,18,0.00,0,Rain,287
2012-10-12,59,49,38,43,36,27,93,65,39,30.42,30.20,30.10,10,10,10,18,7,25,0.00,1,,301
2012-10-13,58,44,31,40,29,23,86,58,28,30.51,30.42,30.31,10,10,10,7,4,,0.00,0,Rain,239
2012-10-14,73,58,44,56,49,41,90,71,42,30.30,30.13,29.94,10,10,10,22,9,31,0.00,2,,216
2012-10-15,72,66,59,63,60,56,95,81,62,29.92,29.72,29.64,10,10,9,22,11,31,0.07,5,Rain,237
2012-10-16,61,52,41,52,41,38,91,66,43,29.92,29.80,29.69,10,10,10,16,8,25,0.00,1,,314
2012-10-17,61,50,37,46,40,35,93,72,45,30.01,29.96,29.91,10,10,3,6,1,,0.00,1,Rain,208
2012-10-18,69,54,39,61,53,38,94,81,43,30.02,29.95,29.88,10,10,10,16,4,21,0.00,4,Rain,130
2012-10-19,72,68,62,66,64,59,100,93,78,29.88,29.76,29.64,10,8,1,15,10,24,0.83,7,Rain,165
2012-10-20,69,58,46,63,55,42,100,92,46,29.86,29.68,29.65,10,2,0,13,3,17,0.00,0,Fog,260
2012-10-21,65,56,46,44,41,39,81,61,41,30.06,29.98,29.88,10,10,10,13,7,,0.00,0,,298
2012-10-22,68,56,46,44,42,40,78,62,39,30.14,30.08,30.04,10,10,10,13,7,,0.00,0,,287
2012-10-23,70,56,43,56,51,41,93,72,53,30.12,30.07,30.05,10,10,9,6,1,,0.00,4,Rain,181
2012-10-24,72,62,53,59,54,52,100,94,64,30.17,30.10,30.06,10,5,0,10,1,,0.00,5,Fog-Rain,59
2012-10-25,62,59,57,58,57,55,95,90,84,30.24,30.22,30.17,10,10,10,8,4,,0.00,8,Rain,67
2012-10-26,67,62,58,59,57,55,91,82,70,30.21,30.14,30.08,10,10,10,7,5,,0.00,8,Rain,68
2012-10-27,64,60,56,58,53,49,91,76,65,30.07,29.97,29.87,10,10,10,14,7,16,0.00,7,Rain,57
2012-10-28,58,56,54,54,51,40,94,84,54,29.86,29.68,29.58,10,9,3,26,16,32,0.01,7,Rain,25
2012-10-29,61,56,50,61,54,48,100,96,74,31.15,29.15,28.20,10,4,1,51,28,69,2.45,8,Rain,20
2012-10-30,49,46,42,48,46,39,94,90,77,29.48,29.19,28.82,10,10,7,28,16,44,0.16,8,Rain,155
2012-10-31,51,44,39,40,38,36,95,81,60,29.61,29.54,29.48,10,10,10,15,5,,0.00,6,,241